createdAt,value
2023-06-13T00:00:46.337Z,11.01
2023-06-13T00:03:34.526Z,10.76
2023-06-13T00:06:02.120Z,10.56
2023-06-13T00:08:30.158Z,10.30
2023-06-13T00:10:57.562Z,10.70
2023-06-13T00:13:26.132Z,10.59
2023-06-13T00:15:57.188Z,10.53
2023-06-13T00:18:25.386Z,10.37
2023-06-13T00:20:53.341Z,10.44
2023-06-13T00:23:21.601Z,10.65
2023-06-13T00:25:50.281Z,10.79
2023-06-13T00:28:18.207Z,10.64
2023-06-13T00:30:45.913Z,10.18
2023-06-13T00:33:15.670Z,10.23
2023-06-13T00:35:43.396Z,10.18
2023-06-13T00:38:11.557Z,10.32
2023-06-13T00:40:40.180Z,10.57
2023-06-13T00:43:08.384Z,10.33
2023-06-13T00:45:36.112Z,10.01
2023-06-13T00:48:06.301Z,9.77
2023-06-13T00:50:38.069Z,9.89
2023-06-13T00:53:09.014Z,10.40
2023-06-13T00:55:37.548Z,10.55
2023-06-13T00:58:08.117Z,10.62
2023-06-13T01:00:37.006Z,10.31
2023-06-13T01:03:07.544Z,9.88
2023-06-13T01:05:37.333Z,10.09
2023-06-13T01:08:09.297Z,9.68
2023-06-13T01:10:38.679Z,9.79
2023-06-13T01:13:12.935Z,9.45
2023-06-13T01:15:47.301Z,9.27
2023-06-13T01:18:18.196Z,9.50
2023-06-13T01:20:47.922Z,9.62
2023-06-13T01:23:28.406Z,9.63
2023-06-13T01:26:04.682Z,9.80
2023-06-13T01:28:36.886Z,9.62
2023-06-13T01:31:07.853Z,9.91
2023-06-13T01:33:37.577Z,9.84
2023-06-13T01:36:06.373Z,9.39
2023-06-13T01:38:35.966Z,9.41
2023-06-13T01:41:03.554Z,9.54
2023-06-13T01:43:31.540Z,9.48
2023-06-13T01:46:05.306Z,9.85
2023-06-13T01:48:42.621Z,9.92
2023-06-13T01:51:20.059Z,9.81
2023-06-13T01:53:53.762Z,9.82
2023-06-13T01:56:23.261Z,9.83
2023-06-13T01:58:57.372Z,9.66
2023-06-13T02:01:28.194Z,9.58
2023-06-13T02:03:56.921Z,9.40
2023-06-13T02:06:24.486Z,9.18
2023-06-13T02:08:53.312Z,9.02
2023-06-13T02:11:20.872Z,9.06
2023-06-13T02:13:48.736Z,9.02
2023-06-13T02:16:16.152Z,9.14
2023-06-13T02:18:45.600Z,9.39
2023-06-13T02:21:13.079Z,9.33
2023-06-13T02:23:41.040Z,9.03
2023-06-13T02:26:08.551Z,9.09
2023-06-13T02:28:36.314Z,9.14
2023-06-13T02:31:03.918Z,9.01
2023-06-13T02:33:31.760Z,8.90
2023-06-13T02:36:00.722Z,8.78
2023-06-13T02:38:28.499Z,9.11
2023-06-13T02:40:55.882Z,9.40
2023-06-13T02:43:24.115Z,9.35
2023-06-13T02:45:51.636Z,9.25
2023-06-13T02:48:19.616Z,9.41
2023-06-13T02:50:47.056Z,9.25
2023-06-13T02:53:16.387Z,9.35
2023-06-13T02:55:43.788Z,9.41
2023-06-13T02:58:11.631Z,9.45
2023-06-13T03:00:39.130Z,9.69
2023-06-13T03:03:06.914Z,9.83
2023-06-13T03:05:34.431Z,9.90
2023-06-13T03:08:02.283Z,10.03
2023-06-13T03:10:31.076Z,10.00
2023-06-13T03:12:59.044Z,10.08
2023-06-13T03:15:26.596Z,10.23
2023-06-13T03:17:54.605Z,10.34
2023-06-13T03:20:27.560Z,10.32
2023-06-13T03:22:56.080Z,10.34
2023-06-13T03:25:23.636Z,10.18
2023-06-13T03:27:53.103Z,10.12
2023-06-13T03:30:20.749Z,10.10
2023-06-13T03:32:48.719Z,10.22
2023-06-13T03:35:16.285Z,10.23
2023-06-13T03:37:44.268Z,10.36
2023-06-13T03:40:12.576Z,10.52
2023-06-13T03:42:40.687Z,10.56
2023-06-13T03:45:10.622Z,10.54
2023-06-13T03:47:39.299Z,10.66
2023-06-13T03:50:07.839Z,10.72
2023-06-13T03:52:35.825Z,10.84
2023-06-13T03:55:03.314Z,10.94
2023-06-13T03:57:31.573Z,10.84
2023-06-13T03:59:59.114Z,10.92
2023-06-13T04:02:28.056Z,10.99
2023-06-13T04:04:56.032Z,10.89
2023-06-13T04:07:23.833Z,10.98
2023-06-13T04:09:53.816Z,11.15
2023-06-13T04:12:21.945Z,11.31
2023-06-13T04:14:50.104Z,11.42
2023-06-13T04:17:19.079Z,11.44
2023-06-13T04:19:48.245Z,11.49
2023-06-13T04:22:15.992Z,11.56
2023-06-13T04:24:43.981Z,11.66
2023-06-13T04:27:11.435Z,11.78
2023-06-13T04:29:39.329Z,11.80
2023-06-13T04:32:07.647Z,11.68
2023-06-13T04:34:35.413Z,11.77
2023-06-13T04:37:04.862Z,11.71
2023-06-13T04:39:32.889Z,11.79
2023-06-13T04:42:00.181Z,11.85
2023-06-13T04:44:28.354Z,11.86
2023-06-13T04:46:55.915Z,11.95
2023-06-13T04:49:23.913Z,12.11
2023-06-13T04:51:51.388Z,12.17
2023-06-13T04:54:20.703Z,12.32
2023-06-13T04:56:48.147Z,12.47
2023-06-13T04:59:16.214Z,12.68
2023-06-13T05:01:43.845Z,12.62
2023-06-13T05:04:11.760Z,12.54
2023-06-13T05:06:39.470Z,12.48
2023-06-13T05:09:07.406Z,12.43
2023-06-13T05:11:36.411Z,12.52
2023-06-13T05:14:04.331Z,12.86
2023-06-13T05:16:31.880Z,12.97
2023-06-13T05:18:59.876Z,13.15
2023-06-13T05:21:28.071Z,13.14
2023-06-13T05:23:55.998Z,13.08
2023-06-13T05:26:23.521Z,13.07
2023-06-13T05:28:53.673Z,12.93
2023-06-13T05:31:21.161Z,12.83
2023-06-13T05:33:49.044Z,12.89
2023-06-13T05:36:16.516Z,12.94
2023-06-13T05:38:44.902Z,12.97
2023-06-13T05:41:12.238Z,12.98
2023-06-13T05:43:40.679Z,13.04
2023-06-13T05:46:09.931Z,13.15
2023-06-13T05:48:38.261Z,13.15
2023-06-13T05:51:05.733Z,13.12
2023-06-13T05:53:33.766Z,13.06
2023-06-13T05:56:01.465Z,13.28
2023-06-13T05:58:29.696Z,13.49
2023-06-13T06:00:57.224Z,13.46
2023-06-13T06:03:27.075Z,13.69
2023-06-13T06:05:54.535Z,13.80
2023-06-13T06:08:22.459Z,13.98
2023-06-13T06:10:50.134Z,14.06
2023-06-13T06:13:18.471Z,14.20
2023-06-13T06:15:45.825Z,14.38
2023-06-13T06:18:13.927Z,14.44
2023-06-13T06:20:43.270Z,14.36
2023-06-13T06:23:13.195Z,14.59
2023-06-13T06:25:41.176Z,14.75
2023-06-13T06:28:09.497Z,14.97
2023-06-13T06:30:37.028Z,14.89
2023-06-13T06:33:05.359Z,15.01
2023-06-13T06:35:33.028Z,15.16
2023-06-13T06:38:03.134Z,15.66
2023-06-13T06:40:30.998Z,15.83
2023-06-13T06:42:59.142Z,15.96
2023-06-13T06:45:26.722Z,15.97
2023-06-13T06:48:06.846Z,16.19
2023-06-13T06:50:34.404Z,16.07
2023-06-13T06:53:18.589Z,16.11
2023-06-13T06:55:52.318Z,16.15
2023-06-13T06:58:21.042Z,16.06
2023-06-13T07:00:53.730Z,16.35
2023-06-13T07:03:21.256Z,16.19
2023-06-13T07:05:49.210Z,16.26
2023-06-13T07:08:18.135Z,16.48
2023-06-13T07:10:46.150Z,16.51
2023-06-13T07:13:13.506Z,16.68
2023-06-13T07:15:41.948Z,16.76
2023-06-13T07:18:09.593Z,16.86
2023-06-13T07:20:37.663Z,17.19
2023-06-13T07:23:05.066Z,17.13
2023-06-13T07:25:34.330Z,16.96
2023-06-13T07:28:01.816Z,16.94
2023-06-13T07:30:29.723Z,17.06
2023-06-13T07:32:59.283Z,16.89
2023-06-13T07:35:28.801Z,16.64
2023-06-13T07:37:56.257Z,16.86
2023-06-13T07:40:25.244Z,16.95
2023-06-13T07:42:54.342Z,17.15
2023-06-13T07:45:23.993Z,17.38
2023-06-13T07:47:53.354Z,17.48
2023-06-13T07:50:22.942Z,17.70
2023-06-13T07:52:50.508Z,17.64
2023-06-13T07:55:18.500Z,17.54
2023-06-13T07:57:58.566Z,17.41
2023-06-13T08:00:29.557Z,17.36
2023-06-13T08:03:09.032Z,17.32
2023-06-13T08:05:37.603Z,17.60
2023-06-13T08:08:05.232Z,17.52
2023-06-13T08:10:33.221Z,17.58
2023-06-13T08:13:00.957Z,17.66
2023-06-13T08:15:30.477Z,17.63
2023-06-13T08:17:57.966Z,17.68
2023-06-13T08:20:26.418Z,17.62
2023-06-13T08:22:53.759Z,17.65
2023-06-13T08:25:21.934Z,18.01
2023-06-13T08:27:49.355Z,18.02
2023-06-13T08:30:17.674Z,18.19
2023-06-13T08:32:46.907Z,18.55
2023-06-13T08:35:15.455Z,18.99
2023-06-13T08:37:43.460Z,19.12
2023-06-13T08:40:13.058Z,19.31
2023-06-13T08:42:41.242Z,19.11
2023-06-13T08:45:10.556Z,19.20
2023-06-13T08:47:39.186Z,19.41
2023-06-13T08:50:11.272Z,19.51
2023-06-13T08:52:39.955Z,19.51
2023-06-13T08:55:31.152Z,19.54
2023-06-13T08:57:59.495Z,19.98
2023-06-13T09:00:28.429Z,19.61
2023-06-13T09:02:56.701Z,19.40
2023-06-13T09:05:28.430Z,19.76
2023-06-13T09:08:12.426Z,19.54
2023-06-13T09:10:46.263Z,19.62
2023-06-13T09:13:14.022Z,19.62
2023-06-13T09:15:42.809Z,19.98
2023-06-13T09:18:10.705Z,20.32
2023-06-13T09:20:40.096Z,20.58
2023-06-13T09:23:14.599Z,20.93
2023-06-13T09:25:45.655Z,20.37
2023-06-13T09:28:32.904Z,20.09
2023-06-13T09:31:01.707Z,20.49
2023-06-13T09:33:33.306Z,20.76
2023-06-13T09:36:05.440Z,21.20
2023-06-13T09:38:36.427Z,21.50
2023-06-13T09:41:05.710Z,21.44
2023-06-13T09:43:33.352Z,21.94
2023-06-13T09:46:01.849Z,22.03
2023-06-13T09:48:29.614Z,22.14
2023-06-13T09:50:57.635Z,22.21
2023-06-13T09:53:26.565Z,21.46
2023-06-13T09:55:54.635Z,21.46
2023-06-13T09:58:32.565Z,21.40
2023-06-13T10:01:02.107Z,21.07
2023-06-13T10:03:29.634Z,20.80
2023-06-13T10:05:59.044Z,20.46
2023-06-13T10:08:28.291Z,20.48
2023-06-13T10:10:58.194Z,20.65
2023-06-13T10:13:29.871Z,20.58
2023-06-13T10:16:01.758Z,20.99
2023-06-13T10:18:34.895Z,21.53
2023-06-13T10:21:09.644Z,21.35
2023-06-13T10:23:43.833Z,21.14
2023-06-13T10:26:18.056Z,20.84
2023-06-13T10:29:02.898Z,20.50
2023-06-13T10:31:44.716Z,20.20
2023-06-13T10:34:31.012Z,20.27
2023-06-13T10:37:40.629Z,20.20
2023-06-13T10:40:38.605Z,20.04
2023-06-13T10:43:13.435Z,20.14
2023-06-13T10:45:45.272Z,20.85
2023-06-13T10:48:14.445Z,20.62
2023-06-13T10:50:42.813Z,20.96
2023-06-13T10:53:26.077Z,21.38
2023-06-13T10:56:02.367Z,21.59
2023-06-13T10:58:31.546Z,21.22
2023-06-13T11:01:24.766Z,21.03
2023-06-13T11:03:53.228Z,21.81
2023-06-13T11:09:19.840Z,20.96
2023-06-13T11:11:54.328Z,21.03
2023-06-13T11:14:25.439Z,20.75
2023-06-13T11:16:54.610Z,20.76
2023-06-13T11:19:25.154Z,20.57
2023-06-13T11:22:11.745Z,20.36
2023-06-13T11:24:40.826Z,20.32
2023-06-13T11:27:10.732Z,20.23
2023-06-13T11:29:39.463Z,19.99
2023-06-13T11:32:09.687Z,19.73
2023-06-13T11:34:40.605Z,19.63
2023-06-13T11:37:12.927Z,19.40
2023-06-13T11:39:44.087Z,19.25
2023-06-13T11:42:13.540Z,19.40
2023-06-13T11:44:42.734Z,19.56
2023-06-13T11:47:12.891Z,19.72
2023-06-13T11:49:42.925Z,19.85
2023-06-13T11:52:14.255Z,19.76
2023-06-13T11:54:42.585Z,19.72
2023-06-13T11:57:12.237Z,19.81
2023-06-13T11:59:40.782Z,19.86
2023-06-13T12:02:09.789Z,20.26
2023-06-13T12:04:38.277Z,20.18
2023-06-13T12:07:07.601Z,20.14
2023-06-13T12:09:35.394Z,20.16
2023-06-13T12:12:03.310Z,20.33
2023-06-13T12:14:33.652Z,20.73
2023-06-13T12:17:01.940Z,21.15
2023-06-13T12:19:32.619Z,21.61
2023-06-13T12:22:00.534Z,21.98
2023-06-13T12:24:32.032Z,21.59
2023-06-13T12:26:59.769Z,21.66
2023-06-13T12:29:27.586Z,22.17
2023-06-13T12:32:03.408Z,22.47
2023-06-13T12:34:31.852Z,22.73
2023-06-13T12:37:04.898Z,22.29
2023-06-13T12:39:33.245Z,22.29
2023-06-13T12:42:02.261Z,22.20
2023-06-13T12:44:32.209Z,21.84
2023-06-13T12:47:04.958Z,21.46
2023-06-13T12:49:37.992Z,22.00
2023-06-13T12:52:06.912Z,22.11
2023-06-13T12:54:36.767Z,22.07
2023-06-13T12:57:07.842Z,21.26
2023-06-13T12:59:40.394Z,20.81
2023-06-13T13:02:11.025Z,20.71
2023-06-13T13:04:41.426Z,21.07
2023-06-13T13:07:09.741Z,20.90
2023-06-13T13:09:38.907Z,20.61
2023-06-13T13:12:07.182Z,20.31
2023-06-13T13:14:35.371Z,20.17
2023-06-13T13:17:03.984Z,20.11
2023-06-13T13:19:33.598Z,19.76
2023-06-13T13:22:01.844Z,19.88
2023-06-13T13:24:31.678Z,19.87
2023-06-13T13:27:02.109Z,20.04
2023-06-13T13:29:30.202Z,19.86
2023-06-13T13:31:58.054Z,19.91
2023-06-13T13:34:27.005Z,19.92
2023-06-13T13:36:56.168Z,19.90
2023-06-13T13:39:24.067Z,19.95
2023-06-13T13:41:52.115Z,19.87
2023-06-13T13:44:20.089Z,19.64
2023-06-13T13:46:47.651Z,19.52
2023-06-13T13:49:15.616Z,19.52
2023-06-13T13:51:43.558Z,19.47
2023-06-13T13:54:12.970Z,19.47
2023-06-13T13:56:40.605Z,19.56
2023-06-13T13:59:08.687Z,19.39
2023-06-13T14:01:36.180Z,19.26
2023-06-13T14:04:04.859Z,19.26
2023-06-13T14:06:32.528Z,19.01
2023-06-13T14:09:02.620Z,18.97
2023-06-13T14:11:31.730Z,18.95
2023-06-13T14:13:59.994Z,19.09
2023-06-13T14:16:27.523Z,18.97
2023-06-13T14:18:55.651Z,19.10
2023-06-13T14:21:23.126Z,19.28
2023-06-13T14:23:51.270Z,19.50
2023-06-13T14:26:18.840Z,19.64
2023-06-13T14:28:48.177Z,19.78
2023-06-13T14:31:15.801Z,19.98
2023-06-13T14:33:43.629Z,20.22
2023-06-13T14:36:13.690Z,20.15
2023-06-13T14:38:42.059Z,20.28
2023-06-13T14:41:11.469Z,20.44
2023-06-13T14:43:40.489Z,20.38
2023-06-13T14:46:10.721Z,20.39
2023-06-13T14:48:41.308Z,20.33
2023-06-13T14:51:08.822Z,19.97
2023-06-13T14:53:36.835Z,20.02
2023-06-13T14:56:04.748Z,19.93
2023-06-13T14:58:33.281Z,19.88
2023-06-13T15:01:01.357Z,20.18
2023-06-13T15:03:49.941Z,20.50
2023-06-13T15:06:22.180Z,20.46
2023-06-13T15:32:08.209Z,20.47
2023-06-13T15:34:51.271Z,20.54
2023-06-13T15:37:37.581Z,20.38
2023-06-13T15:56:36.225Z,20.66
2023-06-13T16:02:01.362Z,20.52
2023-06-13T16:26:55.649Z,21.21
2023-06-13T16:32:36.875Z,20.71
2023-06-13T17:02:02.681Z,21.30
2023-06-13T17:04:30.890Z,21.28
2023-06-13T17:07:01.397Z,21.07
2023-06-13T17:09:33.144Z,21.21
2023-06-13T17:12:03.755Z,21.02
2023-06-13T17:14:33.994Z,21.00
2023-06-13T17:17:03.442Z,21.02
2023-06-13T17:19:34.171Z,20.90
2023-06-13T17:22:03.520Z,20.75
2023-06-13T17:24:50.527Z,20.75
2023-06-13T17:27:18.299Z,20.66
2023-06-13T17:29:49.194Z,20.52
2023-06-13T17:32:18.442Z,20.54
2023-06-13T17:34:51.717Z,20.33
2023-06-13T17:37:19.402Z,20.18
2023-06-13T17:39:50.677Z,20.27
2023-06-13T17:42:22.139Z,20.10
2023-06-13T17:44:50.261Z,20.22
2023-06-13T17:47:21.960Z,20.12
2023-06-13T17:49:52.546Z,20.04
2023-06-13T17:52:22.063Z,19.95
2023-06-13T17:54:50.465Z,19.74
2023-06-13T17:57:18.326Z,19.60
2023-06-13T17:59:47.083Z,19.30
2023-06-13T18:02:16.780Z,19.11
2023-06-13T18:04:54.233Z,18.89
2023-06-13T18:07:24.636Z,18.59
2023-06-13T18:09:55.773Z,18.62
2023-06-13T18:12:23.669Z,18.56
2023-06-13T18:15:00.024Z,18.73
2023-06-13T18:17:29.032Z,18.61
2023-06-13T18:20:06.248Z,18.56
2023-06-13T18:22:34.155Z,18.63
2023-06-13T18:25:02.554Z,18.72
2023-06-13T18:27:30.372Z,18.84
2023-06-13T18:29:58.677Z,18.88
2023-06-13T18:32:26.445Z,18.91
2023-06-13T18:34:54.882Z,18.84
2023-06-13T18:37:24.183Z,18.81
2023-06-13T18:39:56.571Z,18.74
2023-06-13T18:42:24.440Z,18.51
2023-06-13T18:44:53.069Z,18.46
2023-06-13T18:47:24.008Z,18.34
2023-06-13T18:49:54.879Z,18.30
2023-06-13T18:52:27.276Z,18.26
2023-06-13T18:54:58.611Z,18.29
2023-06-13T18:57:26.599Z,18.28
2023-06-13T18:59:57.326Z,18.10
2023-06-13T19:02:25.292Z,18.03
2023-06-13T19:04:53.888Z,17.92
2023-06-13T19:07:22.275Z,17.76
2023-06-13T19:24:02.525Z,17.06
2023-06-13T19:36:57.182Z,16.69
2023-06-13T19:39:25.831Z,16.48
2023-06-13T19:41:54.028Z,16.50
2023-06-13T19:44:22.591Z,16.59
2023-06-13T19:46:50.453Z,16.65
2023-06-13T19:49:19.260Z,16.71
2023-06-13T19:51:47.107Z,16.43
2023-06-13T19:54:19.691Z,16.11
2023-06-13T19:56:47.594Z,15.99
2023-06-13T19:59:16.650Z,15.87
2023-06-13T20:01:47.340Z,16.03
2023-06-13T20:04:16.236Z,16.06
2023-06-13T20:06:44.466Z,16.28
2023-06-13T20:09:12.964Z,16.23
2023-06-13T20:11:42.275Z,15.89
2023-06-13T20:14:18.287Z,16.02
2023-06-13T20:16:46.155Z,16.04
2023-06-13T20:19:14.605Z,15.92
2023-06-13T20:24:47.691Z,15.78
2023-06-13T20:34:07.694Z,15.25
2023-06-13T20:54:50.472Z,14.33
2023-06-13T20:57:36.964Z,13.87
2023-06-13T21:03:05.188Z,13.94
2023-06-13T21:05:37.842Z,13.85
2023-06-13T21:11:06.550Z,13.70
2023-06-13T21:13:34.439Z,13.58
2023-06-13T21:16:07.372Z,13.51
2023-06-13T21:18:39.723Z,13.11
2023-06-13T21:21:10.295Z,13.29
2023-06-13T21:23:40.159Z,13.37
2023-06-13T21:26:10.648Z,13.33
2023-06-13T21:28:43.425Z,13.22
2023-06-13T21:31:20.843Z,13.13
2023-06-13T21:33:53.584Z,13.12
2023-06-13T21:36:23.096Z,13.05
2023-06-13T21:38:51.005Z,13.18
2023-06-13T21:41:35.150Z,13.15
2023-06-13T21:44:04.819Z,12.95
2023-06-13T21:46:50.158Z,12.92
2023-06-13T21:49:23.038Z,12.80
2023-06-13T21:51:50.417Z,12.61
2023-06-13T21:54:19.363Z,12.83
2023-06-13T21:56:49.742Z,12.54
2023-06-13T21:59:18.958Z,12.53
2023-06-13T22:01:47.407Z,12.57
2023-06-13T22:04:15.583Z,12.51
2023-06-13T22:06:43.168Z,12.27
2023-06-13T22:09:11.167Z,11.99
2023-06-13T22:11:38.721Z,11.67
2023-06-13T22:14:09.026Z,11.45
2023-06-13T22:16:36.950Z,11.66
2023-06-13T22:19:07.265Z,11.93
2023-06-13T22:21:34.869Z,12.11
2023-06-13T22:24:02.815Z,12.07
2023-06-13T22:26:30.324Z,12.10
2023-06-13T22:28:58.947Z,12.20
2023-06-13T22:31:28.255Z,12.06
2023-06-13T22:33:56.302Z,11.73
2023-06-13T22:36:23.899Z,11.52
2023-06-13T22:38:52.304Z,11.55
2023-06-13T22:41:19.849Z,11.69
2023-06-13T22:43:49.947Z,11.37
2023-06-13T22:46:17.474Z,11.20
2023-06-13T22:48:47.705Z,11.16
2023-06-13T22:51:17.940Z,11.45
2023-06-13T22:53:48.471Z,11.35
2023-06-13T22:56:16.170Z,11.21
2023-06-13T22:58:44.191Z,11.18
2023-06-13T23:01:11.767Z,11.11
2023-06-13T23:03:41.166Z,11.33
2023-06-13T23:06:10.059Z,11.19
2023-06-13T23:08:37.997Z,11.11
2023-06-13T23:11:05.624Z,11.11
2023-06-13T23:13:33.378Z,10.79
2023-06-13T23:16:00.838Z,11.03
2023-06-13T23:18:28.879Z,11.02
2023-06-13T23:20:56.388Z,11.16
2023-06-13T23:23:25.638Z,11.18
2023-06-13T23:25:53.073Z,10.85
2023-06-13T23:28:20.787Z,10.70
2023-06-13T23:30:48.349Z,10.54
2023-06-13T23:33:16.758Z,10.69
2023-06-13T23:35:44.401Z,10.62
2023-06-13T23:38:12.544Z,10.84
2023-06-13T23:40:41.514Z,10.88
2023-06-13T23:43:09.449Z,10.44
2023-06-13T23:45:37.346Z,10.24
2023-06-13T23:48:05.677Z,10.49
2023-06-13T23:50:33.046Z,10.34
2023-06-13T23:53:02.491Z,10.51
2023-06-13T23:55:30.229Z,10.16
2023-06-13T23:57:59.574Z,10.00
